Search for airport 
image banner adimage banner adimage banner ad
image banner ad

NV35 - Hudson

Located in Austin, United States

ICAO - NV35, IATA -

Data provided by Airmate  

General information

Coordinates: N39°32'40" W117°45'2"
Elevation is 5180 feet MSL.
Magnetic variation is 16° East
View others Airports in Nevada

Operational data

Special qualification required
Current time UTC:
Current local time:
Weather at : KTMT - Austin ( 48 km )
METAR: KTMT 092335Z AUTO 02010G16KT 10SM CLR 18/M08 A2997 RMK AO2 T01801080
View NOTAMs / SUP AIP / TFR affecting this airport [VIEW]
Communications frequencies: [VIEW]

Runways:

RWY identifierQFULength (ft)Width (ft)SurfaceLDA (ft)
175050100EARTH
355050100EARTH

Airport contact information

Address: Austin United States

Satellite view of NV35